Time;durP1;ratioP1;P1;durP2;ratioP2;P2;SDS_P1;SDS_P2;PMS_P1;PMS_P2;Temp;Humidity;BMP_temperature;BMP_pressure;BME280_temperature;BME280_humidity;BME280_pressure;Samples;Min_cycle;Max_cycle;Signal;HPM_P1;HPM_P2
2021/05/15 00:01:31;;;;;;;1.60;0.97;;;;;;;;;;3563125;40;20798;-70
2021/05/15 00:03:57;;;;;;;1.35;1.00;;;;;;;;;;3564937;40;20421;-69
2021/05/15 00:06:24;;;;;;;1.60;1.40;;;;;;;;;;3565833;40;20381;-69
2021/05/15 00:08:51;;;;;;;1.35;1.05;;;;;;;;;;3564054;40;20398;-70
2021/05/15 00:11:17;;;;;;;2.30;1.63;;;;;;;;;;3565654;40;20382;-69
2021/05/15 00:13:43;;;;;;;3.15;2.20;;;;;;;;;;3561022;40;20402;-67
2021/05/15 00:16:09;;;;;;;2.00;1.90;;;;;;;;;;3557780;40;20761;-69
2021/05/15 00:18:36;;;;;;;2.30;1.90;;;;;;;;;;3564600;40;20983;-69
2021/05/15 00:21:02;;;;;;;2.60;1.70;;;8.60;99.90;;;;;;3564318;40;20803;-69
2021/05/15 00:23:28;;;;;;;2.20;1.40;;;7.60;99.90;;;;;;3565978;40;20384;-70
2021/05/15 00:25:55;;;;;;;1.90;1.50;;;7.60;99.90;;;;;;3562323;40;20482;-69
2021/05/15 00:28:21;;;;;;;3.23;2.03;;;7.60;99.90;;;;;;3565672;40;20473;-69
2021/05/15 00:30:47;;;;;;;5.43;2.53;;;;;;;;;;3566959;40;20388;-70
2021/05/15 00:33:13;;;;;;;3.42;2.10;;;;;;;;;;3566893;40;20402;-70
2021/05/15 00:35:39;;;;;;;2.90;1.92;;;;;;;;;;3565413;40;20420;-70
2021/05/15 00:38:06;;;;;;;2.33;1.90;;;;;;;;;;3566826;40;20833;-69
2021/05/15 00:40:32;;;;;;;1.40;1.30;;;;;;;;;;3567236;40;20378;-69
2021/05/15 00:42:59;;;;;;;3.37;1.60;;;;;;;;;;3566964;40;20385;-70
2021/05/15 00:45:25;;;;;;;3.13;1.75;;;;;;;;;;3563829;40;20709;-70
2021/05/15 00:47:51;;;;;;;2.78;1.90;;;;;;;;;;3567010;40;20743;-70
2021/05/15 00:50:17;;;;;;;2.22;1.50;;;;;;;;;;3567317;40;20381;-70
2021/05/15 00:52:46;;;;;;;2.83;1.58;;;;;;;;;;3563881;40;20521;-69
2021/05/15 00:55:13;;;;;;;1.30;1.20;;;;;;;;;;3566210;40;20382;-69
2021/05/15 00:57:40;;;;;;;2.20;1.40;;;;;;;;;;3563805;40;20775;-69
2021/05/15 01:00:09;;;;;;;3.05;1.52;;;;;;;;;;3569005;40;20425;-69
2021/05/15 01:02:35;;;;;;;2.40;1.60;;;;;;;;;;3567041;40;20372;-69
2021/05/15 01:05:01;;;;;;;3.17;1.50;;;;;;;;;;3566732;40;20417;-70
2021/05/15 01:07:28;;;;;;;5.70;1.88;;;;;;;;;;3566968;40;20378;-70
2021/05/15 01:09:54;;;;;;;2.92;1.48;;;;;;;;;;3566671;40;20628;-67
2021/05/15 01:12:20;;;;;;;2.45;1.40;;;;;;;;;;3565693;40;20414;-70
2021/05/15 01:14:46;;;;;;;3.57;1.33;;;;;;;;;;3566764;40;20398;-70
2021/05/15 01:17:13;;;;;;;1.40;1.05;;;7.50;99.90;;;;;;3565689;40;20421;-69
2021/05/15 01:19:39;;;;;;;3.50;1.30;;;;;;;;;;3561193;40;20375;-67
2021/05/15 01:22:07;;;;;;;3.80;2.10;;;;;;;;;;3565869;40;20404;-70
2021/05/15 01:24:33;;;;;;;2.78;1.30;;;;;;;;;;3566238;40;20378;-69
2021/05/15 01:27:00;;;;;;;2.85;1.80;;;;;;;;;;3566850;40;20460;-67
2021/05/15 01:29:26;;;;;;;3.77;1.50;;;;;;;;;;3566980;40;20381;-70
2021/05/15 01:31:53;;;;;;;3.17;1.83;;;;;;;;;;3566775;40;20475;-70
2021/05/15 01:34:19;;;;;;;3.20;2.40;;;;;;;;;;3565497;40;20445;-70
2021/05/15 01:36:45;;;;;;;2.15;1.83;;;;;;;;;;3566724;40;20842;-69
2021/05/15 01:39:14;;;;;;;3.28;1.55;;;;;;;;;;3566853;40;20777;-70
2021/05/15 01:41:40;;;;;;;2.53;1.65;;;;;;;;;;3565381;40;20643;-69
2021/05/15 01:44:07;;;;;;;2.45;1.30;;;;;;;;;;3566749;40;20394;-70
2021/05/15 01:46:33;;;;;;;2.28;1.38;;;;;;;;;;3566590;40;20397;-70
2021/05/15 01:48:59;;;;;;;2.47;1.63;;;;;;;;;;3566798;40;20389;-69
2021/05/15 01:51:25;;;;;;;2.30;1.73;;;;;;;;;;3566533;40;20384;-70
2021/05/15 01:53:53;;;;;;;2.88;1.67;;;;;;;;;;3566675;40;20370;-70
2021/05/15 01:56:21;;;;;;;4.45;1.70;;;;;;;;;;3566644;40;20397;-70
2021/05/15 01:58:47;;;;;;;4.13;2.22;;;;;;;;;;3566557;40;20443;-70
2021/05/15 02:01:13;;;;;;;2.15;1.92;;;7.10;99.90;;;;;;3566617;40;20467;-70
2021/05/15 02:03:42;;;;;;;2.25;1.95;;;6.80;99.90;;;;;;3566463;40;20784;-70
2021/05/15 02:06:08;;;;;;;4.97;2.58;;;6.90;99.90;;;;;;3566012;40;20483;-70
2021/05/15 02:08:34;;;;;;;3.35;2.42;;;6.80;99.90;;;;;;3566299;40;20467;-70
2021/05/15 02:11:02;;;;;;;3.65;2.22;;;6.80;99.90;;;;;;3563310;40;20394;-70
2021/05/15 02:13:31;;;;;;;3.45;1.70;;;6.80;99.90;;;;;;3565967;40;20405;-70
2021/05/15 02:15:59;;;;;;;3.50;2.10;;;6.90;99.90;;;;;;3564836;40;20406;-68
2021/05/15 02:18:26;;;;;;;3.03;1.73;;;7.10;99.90;;;;;;3568742;40;20486;-70
2021/05/15 02:20:53;;;;;;;3.20;1.97;;;7.10;99.90;;;;;;3568454;40;20463;-70
2021/05/15 02:23:19;;;;;;;2.75;1.90;;;6.90;99.90;;;;;;3565517;40;20511;-70
2021/05/15 02:25:46;;;;;;;2.65;1.90;;;7.10;99.90;;;;;;3566709;40;20382;-68
2021/05/15 02:28:13;;;;;;;2.67;1.58;;;7.00;99.90;;;;;;3564029;40;20397;-67
2021/05/15 02:30:41;;;;;;;2.88;2.30;;;6.90;99.90;;;;;;3566274;40;20397;-67
2021/05/15 02:33:07;;;;;;;4.00;1.80;;;7.00;99.90;;;;;;3566306;40;20386;-67
2021/05/15 02:35:33;;;;;;;2.30;1.50;;;7.00;99.90;;;;;;3565748;40;20400;-67
2021/05/15 02:38:00;;;;;;;2.65;1.90;;;7.10;99.90;;;;;;3566268;40;20382;-67
2021/05/15 02:40:27;;;;;;;2.50;1.67;;;6.90;99.90;;;;;;3571750;40;20406;-71
2021/05/15 02:42:54;;;;;;;3.37;2.13;;;6.90;99.90;;;;;;3566389;40;20371;-76
2021/05/15 02:45:22;;;;;;;4.70;2.83;;;6.80;99.90;;;;;;3565496;40;20475;-69
2021/05/15 02:47:50;;;;;;;5.40;2.90;;;6.60;99.90;;;;;;3566377;40;20421;-69
2021/05/15 02:50:17;;;;;;;3.10;2.17;;;6.80;99.90;;;;;;3566179;40;20459;-69
2021/05/15 02:52:43;;;;;;;2.30;2.00;;;6.80;99.90;;;;;;3568878;40;20390;-69
2021/05/15 02:55:11;;;;;;;3.53;1.70;;;6.80;99.90;;;;;;3568175;40;20405;-69
2021/05/15 02:57:40;;;;;;;3.10;2.40;;;6.90;99.90;;;;;;3566061;40;20439;-69
2021/05/15 03:00:08;;;;;;;2.85;1.80;;;6.70;99.90;;;;;;3566120;40;20401;-69
2021/05/15 03:02:34;;;;;;;3.20;2.33;;;6.70;99.90;;;;;;3566267;40;20757;-69
2021/05/15 03:05:00;;;;;;;3.95;2.33;;;6.70;99.90;;;;;;3567386;40;20624;-69
2021/05/15 03:07:26;;;;;;;3.28;2.13;;;6.60;99.90;;;;;;3565912;40;20690;-70
2021/05/15 03:09:52;;;;;;;2.50;1.80;;;6.70;99.90;;;;;;3563201;40;20393;-69
2021/05/15 03:12:18;;;;;;;3.13;1.83;;;6.70;99.90;;;;;;3566053;40;20778;-69
2021/05/15 03:14:45;;;;;;;2.58;1.90;;;6.60;99.90;;;;;;3562540;40;20417;-69
2021/05/15 03:17:11;;;;;;;2.78;1.75;;;6.40;99.90;;;;;;3565049;40;20409;-69
2021/05/15 03:19:37;;;;;;;2.37;2.00;;;;;;;;;;3565968;40;20478;-69
2021/05/15 03:22:04;;;;;;;2.60;1.70;;;;;;;;;;3564939;40;20397;-69
2021/05/15 03:24:32;;;;;;;2.20;2.00;;;;;;;;;;3564843;40;20417;-70
2021/05/15 03:26:58;;;;;;;3.35;2.00;;;;;;;;;;3566069;40;20389;-69
2021/05/15 03:29:24;;;;;;;2.10;1.90;;;;;;;;;;3565997;40;20751;-69
2021/05/15 03:31:50;;;;;;;3.97;2.58;;;;;;;;;;3563794;40;20457;-70
2021/05/15 03:34:17;;;;;;;4.60;3.05;;;;;;;;;;3565455;40;20385;-69
2021/05/15 03:36:43;;;;;;;3.58;2.78;;;;;;;;;;3564791;40;20417;-69
2021/05/15 03:39:18;;;;;;;3.05;2.75;;;;;;;;;;3566213;40;20384;-69
2021/05/15 03:41:44;;;;;;;3.15;2.13;;;;;;;;;;3565850;40;20382;-69
2021/05/15 03:44:10;;;;;;;3.25;1.70;;;;;;;;;;3565819;40;20377;-69
2021/05/15 03:46:36;;;;;;;2.80;1.75;;;;;;;;;;3565868;40;20378;-69
2021/05/15 03:49:03;;;;;;;3.67;2.33;;;;;;;;;;3565787;40;20382;-70
2021/05/15 03:51:29;;;;;;;2.55;2.17;;;;;;;;;;3564894;40;20698;-69
2021/05/15 03:53:55;;;;;;;4.55;2.90;;;;;;;;;;3564682;40;20432;-69
2021/05/15 03:56:22;;;;;;;3.22;2.15;;;;;;;;;;3565747;40;20400;-69
2021/05/15 03:58:49;;;;;;;4.00;2.22;;;;;;;;;;3564547;40;20490;-69
2021/05/15 04:01:15;;;;;;;2.67;2.25;;;;;;;;;;3565740;40;20763;-69
2021/05/15 04:03:41;;;;;;;3.08;2.40;;;;;;;;;;3564063;40;20449;-69
2021/05/15 04:06:07;;;;;;;3.30;2.13;;;;;;;;;;3565663;40;20378;-69
2021/05/15 04:08:33;;;;;;;3.33;1.90;;;;;;;;;;3567265;40;20390;-69
2021/05/15 04:10:59;;;;;;;3.23;2.10;;;;;;;;;;3568843;40;20382;-69
2021/05/15 04:16:09;;;;;;;4.13;3.65;;;;;;;;;;3566051;40;20394;-69
2021/05/15 04:18:35;;;;;;;6.80;5.07;;;;;;;;;;3567322;40;20380;-69
2021/05/15 04:21:02;;;;;;;5.03;3.83;;;;;;;;;;3567266;40;20544;-69
2021/05/15 04:23:28;;;;;;;5.55;4.20;;;;;;;;;;3567533;40;20374;-69
2021/05/15 04:25:54;;;;;;;3.95;3.10;;;;;;;;;;3567244;40;20377;-69
2021/05/15 04:28:21;;;;;;;3.70;2.75;;;;;;;;;;3568711;40;20394;-69
2021/05/15 04:30:48;;;;;;;6.70;3.53;;;;;;;;;;3567151;40;20389;-69
2021/05/15 04:33:14;;;;;;;3.47;2.92;;;;;;;;;;3568387;40;20405;-69
2021/05/15 04:35:40;;;;;;;2.78;2.20;;;;;;;;;;3566848;40;20448;-70
2021/05/15 04:38:07;;;;;;;3.88;2.33;;;;;;;;;;3567085;40;20763;-70
2021/05/15 04:40:33;;;;;;;2.38;1.90;;;;;;;;;;3567003;40;20374;-69
2021/05/15 04:43:00;;;;;;;3.63;2.20;;;;;;;;;;3568719;40;20385;-69
2021/05/15 04:45:28;;;;;;;2.70;2.08;;;;;;;;;;3566854;40;20751;-69
2021/05/15 04:47:55;;;;;;;2.72;2.50;;;;;;;;;;3566953;40;20638;-70
2021/05/15 04:50:21;;;;;;;2.60;2.17;;;;;;;;;;3566903;40;20680;-70
2021/05/15 04:52:47;;;;;;;2.95;1.88;;;;;;;;;;3565978;40;20640;-69
2021/05/15 04:55:13;;;;;;;2.92;1.80;;;6.40;99.90;;;;;;3566979;40;20378;-69
2021/05/15 04:57:39;;;;;;;1.75;1.65;;;;;;;;;;3567039;40;20647;-69
2021/05/15 05:00:06;;;;;;;2.70;1.98;;;7.10;99.90;;;;;;3566928;40;20425;-69
2021/05/15 05:02:32;;;;;;;2.30;1.50;;;7.30;99.90;;;;;;3566801;40;20390;-69
2021/05/15 05:04:59;;;;;;;2.15;1.73;;;7.30;99.90;;;;;;3567197;40;20831;-69
2021/05/15 05:07:25;;;;;;;2.10;1.80;;;;;;;;;;3566863;40;20390;-69
2021/05/15 05:09:51;;;;;;;3.47;1.83;;;;;;;;;;3567073;40;20393;-70
2021/05/15 05:12:17;;;;;;;3.25;1.90;;;;;;;;;;3568379;40;20390;-69
2021/05/15 05:14:44;;;;;;;5.70;2.40;;;;;;;;;;3566656;40;20420;-70
2021/05/15 05:17:11;;;;;;;4.40;2.55;;;;;;;;;;3565441;40;20378;-69
2021/05/15 05:19:37;;;;;;;2.10;1.90;;;7.30;99.90;;;;;;3565678;40;20648;-70
2021/05/15 05:22:03;;;;;;;3.20;2.33;;;7.60;99.90;;;;;;3566794;40;20385;-69
2021/05/15 05:24:30;;;;;;;3.90;2.85;;;;;;;;;;3567025;40;20441;-70
2021/05/15 05:26:56;;;;;;;2.45;2.10;;;;;;;;;;3568951;40;20377;-70
2021/05/15 05:29:22;;;;;;;3.27;2.50;;;;;;;;;;3567574;40;20479;-70
2021/05/15 05:31:50;;;;;;;4.80;3.15;;;;;;;;;;3564027;40;20384;-69
2021/05/15 05:34:17;;;;;;;4.03;2.67;;;;;;;;;;3572051;40;20418;-70
2021/05/15 05:36:43;;;;;;;7.10;3.38;;;;;;;;;;3568080;40;20696;-70
2021/05/15 05:39:12;;;;;;;5.57;3.50;;;;;;;;;;3567613;40;20369;-70
2021/05/15 05:41:38;;;;;;;4.18;3.13;;;7.70;99.90;;;;;;3568088;40;20671;-70
2021/05/15 05:44:04;;;;;;;3.72;2.85;;;8.40;99.90;;;;;;3566906;40;20382;-70
2021/05/15 05:46:30;;;;;;;3.65;2.60;;;;;;;;;;3566856;40;20382;-70
2021/05/15 05:48:57;;;;;;;2.60;2.13;;;;;;;;;;3566798;40;20515;-70
2021/05/15 05:51:23;;;;;;;3.20;2.20;;;;;;;;;;3567376;40;20369;-70
2021/05/15 05:53:50;;;;;;;3.72;3.38;;;;;;;;;;3567560;40;20378;-70
2021/05/15 05:56:17;;;;;;;5.90;3.20;;;;;;;;;;3568018;40;20401;-70
2021/05/15 05:58:45;;;;;;;4.22;3.40;;;;;;;;;;3567657;40;20405;-70
2021/05/15 06:01:11;;;;;;;3.43;2.67;;;;;;;;;;3565696;40;20405;-70
2021/05/15 06:03:38;;;;;;;3.67;2.65;;;;;;;;;;3561308;40;20733;-70
2021/05/15 06:06:04;;;;;;;3.45;2.90;;;;;;;;;;3565491;40;20405;-70
2021/05/15 06:08:30;;;;;;;3.75;2.60;;;;;;;;;;3566482;40;20429;-70
2021/05/15 06:10:56;;;;;;;3.78;3.40;;;;;;;;;;3567723;40;20472;-70
2021/05/15 06:13:23;;;;;;;5.22;3.80;;;;;;;;;;3565448;40;20473;-70
2021/05/15 06:15:49;;;;;;;6.77;5.13;;;;;;;;;;3566448;40;20400;-70
2021/05/15 06:18:16;;;;;;;4.63;4.22;;;;;;;;;;3564935;40;20366;-70
2021/05/15 06:20:42;;;;;;;6.18;4.53;;;;;;;;;;3566330;40;20382;-70
2021/05/15 06:23:09;;;;;;;7.03;5.10;;;;;;;;;;3564782;40;20511;-70
2021/05/15 06:25:35;;;;;;;5.95;5.20;;;;;;;;;;3565393;40;20390;-70
2021/05/15 06:28:01;;;;;;;5.57;4.57;;;;;;;;;;3564662;40;20404;-70
2021/05/15 06:30:28;;;;;;;5.32;4.03;;;;;;;;;;3566005;40;20386;-70
2021/05/15 06:32:54;;;;;;;3.92;3.50;;;;;;;;;;3566313;40;20782;-70
2021/05/15 06:35:21;;;;;;;5.25;4.28;;;;;;;;;;3566294;40;20389;-70
2021/05/15 06:37:47;;;;;;;4.78;3.60;;;;;;;;;;3566334;40;20401;-70
2021/05/15 06:40:13;;;;;;;5.35;4.20;;;;;;;;;;3566058;40;20389;-70
2021/05/15 06:42:40;;;;;;;4.70;4.18;;;;;;;;;;3566359;40;20413;-70
2021/05/15 06:45:07;;;;;;;4.32;3.92;;;;;;;;;;3568487;40;20396;-70
2021/05/15 06:47:34;;;;;;;4.18;3.78;;;8.40;99.90;;;;;;3562979;40;20417;-70
2021/05/15 06:50:00;;;;;;;4.20;3.83;;;10.00;99.90;;;;;;3567302;40;20397;-70
2021/05/15 06:52:26;;;;;;;4.53;4.13;;;10.00;99.90;;;;;;3564947;40;20500;-70
2021/05/15 06:54:52;;;;;;;4.05;3.65;;;10.10;99.90;;;;;;3566474;40;20386;-70
2021/05/15 06:57:19;;;;;;;4.55;4.18;;;10.20;99.90;;;;;;3566727;40;20400;-70
2021/05/15 06:59:46;;;;;;;6.30;4.35;;;10.20;99.90;;;;;;3566005;40;20401;-70
2021/05/15 07:02:12;;;;;;;4.82;4.10;;;10.30;99.90;;;;;;3565744;40;20386;-70
2021/05/15 07:04:39;;;;;;;5.35;4.32;;;;;;;;;;3566137;40;20393;-70
2021/05/15 07:07:05;;;;;;;5.63;4.40;;;;;;;;;;3565700;40;20390;-70
2021/05/15 07:09:31;;;;;;;5.60;4.25;;;10.30;99.90;;;;;;3566203;40;20397;-70
2021/05/15 07:11:57;;;;;;;4.47;4.03;;;10.50;99.90;;;;;;3565723;40;20635;-70
2021/05/15 07:14:23;;;;;;;4.50;4.10;;;10.60;99.90;;;;;;3565736;40;20532;-70
2021/05/15 07:16:49;;;;;;;4.95;4.22;;;10.60;99.90;;;;;;3565806;40;20412;-70
2021/05/15 07:19:15;;;;;;;4.83;4.07;;;10.70;99.90;;;;;;3563657;40;20469;-70
2021/05/15 07:21:42;;;;;;;5.57;4.53;;;;;;;;;;3567051;40;20377;-70
2021/05/15 07:24:09;;;;;;;5.20;3.83;;;10.80;99.90;;;;;;3564830;40;20483;-70
2021/05/15 07:26:35;;;;;;;5.32;4.15;;;;;;;;;;3564832;40;20671;-71
2021/05/15 07:29:01;;;;;;;6.00;4.95;;;;;;;;;;3566760;40;20381;-70
2021/05/15 07:31:27;;;;;;;5.03;4.38;;;;;;;;;;3566951;40;20891;-70
2021/05/15 07:33:53;;;;;;;5.75;4.85;;;10.90;99.90;;;;;;3566155;40;20758;-70
2021/05/15 07:36:19;;;;;;;4.97;4.47;;;11.20;99.90;;;;;;3566085;40;20394;-70
2021/05/15 07:38:48;;;;;;;5.80;5.13;;;11.20;99.90;;;;;;3563047;40;20660;-70
2021/05/15 07:41:14;;;;;;;6.20;5.60;;;11.40;99.90;;;;;;3571406;40;20401;-70
2021/05/15 07:43:40;;;;;;;6.93;5.60;;;11.40;99.90;;;;;;3568800;40;20389;-70
2021/05/15 07:46:06;;;;;;;8.45;5.93;;;11.50;99.90;;;;;;3568457;40;20634;-70
2021/05/15 07:48:39;;;;;;;6.22;5.53;;;;;;;;;;3569255;40;20393;-70
2021/05/15 07:51:07;;;;;;;7.35;6.32;;;;;;;;;;3565747;40;20747;-70
2021/05/15 07:53:33;;;;;;;6.73;6.03;;;;;;;;;;3567353;40;20805;-70
2021/05/15 07:56:00;;;;;;;9.40;7.10;;;;;;;;;;3567449;40;20394;-70
2021/05/15 07:58:26;;;;;;;7.88;6.88;;;;;;;;;;3568095;40;20864;-70
2021/05/15 08:00:52;;;;;;;10.00;8.27;;;;;;;;;;3568700;40;20425;-70
2021/05/15 08:03:18;;;;;;;8.95;7.18;;;11.60;99.90;;;;;;3567001;40;20776;-71
2021/05/15 08:05:44;;;;;;;9.32;7.80;;;;;;;;;;3567062;40;20390;-70
2021/05/15 08:08:10;;;;;;;9.77;8.68;;;11.80;99.90;;;;;;3566060;40;20662;-71
2021/05/15 08:10:36;;;;;;;10.00;9.00;;;12.10;99.90;;;;;;3567477;40;20400;-70
2021/05/15 08:13:03;;;;;;;11.53;9.23;;;11.90;99.90;;;;;;3567080;40;20392;-70
2021/05/15 08:15:29;;;;;;;10.15;9.05;;;11.90;99.90;;;;;;3566867;40;20790;-70
2021/05/15 08:17:56;;;;;;;11.73;9.45;;;;;;;;;;3566026;40;20413;-70
2021/05/15 08:20:23;;;;;;;11.75;9.75;;;;;;;;;;3566967;40;20425;-70
2021/05/15 08:22:50;;;;;;;11.38;9.55;;;;;;;;;;3566309;40;20370;-70
2021/05/15 08:25:16;;;;;;;11.05;8.57;;;;;;;;;;3566747;40;20385;-70
2021/05/15 08:27:43;;;;;;;10.85;9.30;;;;;;;;;;3567104;40;20365;-71
2021/05/15 08:30:15;;;;;;;10.13;8.57;;;;;;;;;;3566750;40;20401;-70
2021/05/15 08:32:41;;;;;;;10.32;8.32;;;;;;;;;;3567080;40;20639;-70
2021/05/15 08:35:08;;;;;;;10.23;8.73;;;;;;;;;;3566599;40;20656;-71
2021/05/15 08:37:34;;;;;;;10.35;8.23;;;;;;;;;;3565114;40;20401;-71
2021/05/15 08:40:00;;;;;;;8.95;7.57;;;;;;;;;;3567304;40;20382;-70
2021/05/15 08:42:27;;;;;;;10.07;8.60;;;;;;;;;;3564578;40;20398;-70
2021/05/15 08:44:54;;;;;;;11.30;8.40;;;;;;;;;;3565973;40;20397;-71
2021/05/15 08:47:21;;;;;;;10.32;8.80;;;;;;;;;;3566674;40;20432;-71
2021/05/15 08:49:47;;;;;;;9.60;7.80;;;;;;;;;;3565088;40;20398;-71
2021/05/15 08:52:14;;;;;;;10.43;7.33;;;;;;;;;;3566360;40;20374;-70
2021/05/15 08:54:40;;;;;;;10.73;7.28;;;;;;;;;;3569646;40;20421;-71
2021/05/15 08:57:07;;;;;;;7.57;6.78;;;;;;;;;;3577595;40;20420;-70
2021/05/15 08:59:33;;;;;;;7.32;5.72;;;;;;;;;;3567018;40;20380;-71
2021/05/15 09:01:59;;;;;;;7.70;6.45;;;;;;;;;;3566887;40;20509;-71
2021/05/15 09:04:27;;;;;;;8.82;6.13;;;;;;;;;;3565987;40;20397;-71
2021/05/15 09:06:53;;;;;;;6.70;5.45;;;;;;;;;;3566859;40;20377;-70
2021/05/15 09:09:19;;;;;;;6.97;6.07;;;;;;;;;;3566048;40;20678;-70
2021/05/15 09:11:47;;;;;;;6.15;5.10;;;;;;;;;;3566126;40;20634;-70
2021/05/15 09:14:14;;;;;;;6.47;5.17;;;;;;;;;;3565733;40;20483;-71
2021/05/15 09:16:47;;;;;;;7.22;4.60;;;;;;;;;;3557129;40;20477;-71
2021/05/15 09:19:17;;;;;;;5.77;4.83;;;;;;;;;;3556857;40;20473;-71
2021/05/15 09:21:53;;;;;;;5.63;4.38;;;;;;;;;;3556269;40;20383;-71
2021/05/15 09:24:26;;;;;;;5.38;3.80;;;;;;;;;;3556859;40;20394;-71
2021/05/15 09:26:52;;;;;;;4.35;3.65;;;;;;;;;;3556522;40;20748;-71
2021/05/15 09:29:18;;;;;;;4.68;3.88;;;;;;;;;;3556874;40;20395;-71
2021/05/15 09:31:46;;;;;;;4.95;3.95;;;;;;;;;;3556730;40;20386;-71
2021/05/15 09:34:12;;;;;;;6.40;5.05;;;;;;;;;;3557370;40;20404;-71
2021/05/15 09:36:39;;;;;;;7.00;4.80;;;;;;;;;;3556810;40;20402;-71
2021/05/15 09:39:07;;;;;;;4.90;4.40;;;;;;;;;;3556821;40;20426;-71
2021/05/15 09:41:35;;;;;;;4.57;3.47;;;;;;;;;;3556660;40;20395;-71
2021/05/15 09:44:01;;;;;;;3.72;3.17;;;;;;;;;;3556909;40;20379;-71
2021/05/15 09:46:28;;;;;;;6.65;3.60;;;;;;;;;;3556343;40;20375;-71
2021/05/15 09:48:54;;;;;;;5.75;4.53;;;;;;;;;;3555820;40;20401;-71
2021/05/15 09:51:21;;;;;;;6.45;3.72;;;;;;;;;;3556878;40;20764;-71
2021/05/15 09:53:47;;;;;;;4.43;3.72;;;;;;;;;;3556550;40;20421;-71
2021/05/15 09:56:14;;;;;;;5.05;4.10;;;;;;;;;;3557525;40;20786;-69
2021/05/15 09:58:41;;;;;;;5.43;4.18;;;;;;;;;;3556571;40;20384;-69
2021/05/15 10:01:07;;;;;;;7.93;3.92;;;;;;;;;;3558743;40;20481;-69
2021/05/15 10:03:34;;;;;;;6.53;4.00;;;;;;;;;;3555741;40;20413;-69
2021/05/15 10:06:01;;;;;;;4.90;3.50;;;;;;;;;;3557485;40;20387;-69
2021/05/15 10:08:28;;;;;;;6.47;5.00;;;;;;;;;;3556738;40;20393;-70
2021/05/15 10:10:54;;;;;;;6.45;4.80;;;;;;;;;;3555656;40;20411;-71
2021/05/15 10:13:23;;;;;;;6.93;4.97;;;;;;;;;;3556639;40;20450;-71
2021/05/15 10:15:49;;;;;;;6.05;4.90;;;;;;;;;;3563268;40;20467;-70
2021/05/15 10:18:16;;;;;;;5.05;4.40;;;;;;;;;;3568484;40;20370;-70
2021/05/15 10:20:43;;;;;;;5.28;4.78;;;;;;;;;;3568072;40;20402;-71
2021/05/15 10:23:15;;;;;;;5.80;5.03;;;;;;;;;;3566472;40;20609;-71
2021/05/15 10:25:41;;;;;;;5.68;4.78;;;;;;;;;;3568233;40;20369;-71
2021/05/15 10:28:07;;;;;;;5.93;4.83;;;;;;;;;;3566519;40;20453;-70
2021/05/15 10:30:34;;;;;;;5.38;4.88;;;;;;;;;;3566659;40;20833;-71
2021/05/15 10:33:02;;;;;;;6.38;5.32;;;;;;;;;;3566275;40;20384;-70
2021/05/15 10:35:29;;;;;;;5.88;5.28;;;;;;;;;;3566728;40;20362;-71
2021/05/15 10:38:03;;;;;;;6.03;5.25;;;;;;;;;;3566017;40;20453;-71
2021/05/15 10:40:31;;;;;;;7.80;5.70;;;;;;;;;;3566404;40;20759;-71
2021/05/15 10:42:58;;;;;;;5.32;4.82;;;;;;;;;;3566578;40;20394;-71
2021/05/15 10:45:33;;;;;;;4.90;4.40;;;;;;;;;;3566284;40;20422;-70
2021/05/15 10:48:10;;;;;;;6.32;4.38;;;;;;;;;;3564973;40;20751;-71
2021/05/15 10:50:48;;;;;;;5.03;4.53;;;;;;;;;;3565296;40;20453;-71
2021/05/15 10:53:18;;;;;;;4.93;4.00;;;;;;;;;;3566255;40;20373;-71
2021/05/15 10:55:44;;;;;;;6.13;4.40;;;;;;;;;;3565174;40;20628;-71
2021/05/15 10:58:11;;;;;;;6.18;4.85;;;;;;;;;;3566223;40;20428;-71
2021/05/15 11:00:37;;;;;;;5.88;4.55;;;;;;;;;;3566356;40;20751;-71
2021/05/15 11:03:05;;;;;;;5.32;4.43;;;;;;;;;;3566330;40;20759;-71
2021/05/15 11:05:41;;;;;;;7.00;4.65;;;;;;;;;;3565129;40;20853;-71
2021/05/15 11:08:07;;;;;;;4.47;3.60;;;;;;;;;;3564994;40;20378;-71
2021/05/15 11:10:35;;;;;;;4.75;4.20;;;;;;;;;;3564586;40;20402;-70
2021/05/15 11:13:09;;;;;;;5.35;3.80;;;;;;;;;;3565400;40;20688;-70
2021/05/15 11:15:35;;;;;;;5.18;4.43;;;;;;;;;;3566110;40;20421;-71
2021/05/15 11:18:01;;;;;;;6.50;4.40;;;;;;;;;;3564722;40;20398;-69
2021/05/15 11:20:31;;;;;;;4.85;3.72;;;;;;;;;;3562739;40;20414;-71
2021/05/15 11:22:57;;;;;;;4.60;3.93;;;;;;;;;;3561687;40;20399;-71
2021/05/15 11:25:26;;;;;;;4.35;3.40;;;;;;;;;;3565180;40;20393;-68
2021/05/15 11:27:55;;;;;;;4.20;3.80;;;;;;;;;;3565546;40;20467;-72
2021/05/15 11:30:22;;;;;;;3.70;2.60;;;;;;;;;;3566152;40;20378;-71
2021/05/15 11:32:54;;;;;;;4.18;2.50;;;;;;;;;;3565906;40;20448;-71
2021/05/15 11:35:20;;;;;;;3.10;2.80;;;;;;;;;;3565950;40;20416;-71
2021/05/15 11:37:48;;;;;;;3.55;2.63;;;;;;;;;;3565564;40;20475;-71
2021/05/15 11:40:14;;;;;;;2.88;2.28;;;;;;;;;;3564829;40;20390;-71
2021/05/15 11:42:40;;;;;;;3.63;2.60;;;;;;;;;;3566069;40;20406;-70
2021/05/15 11:45:07;;;;;;;3.42;2.42;;;;;;;;;;3564095;40;20465;-71
2021/05/15 11:47:33;;;;;;;4.13;2.58;;;;;;;;;;3565673;40;20361;-69
2021/05/15 11:50:00;;;;;;;2.80;2.50;;;;;;;;;;3564997;40;20393;-70
2021/05/15 11:52:33;;;;;;;3.63;2.58;;;;;;;;;;3566405;40;20392;-72
2021/05/15 11:55:01;;;;;;;2.70;2.08;;;;;;;;;;3566891;40;20486;-71
2021/05/15 11:57:27;;;;;;;2.50;2.03;;;;;;;;;;3568004;40;20403;-72
2021/05/15 11:59:54;;;;;;;3.20;1.70;;;;;;;;;;3568387;40;20455;-72
2021/05/15 12:02:21;;;;;;;2.33;1.90;;;;;;;;;;3568486;40;20376;-72
2021/05/15 12:04:47;;;;;;;1.85;1.42;;;;;;;;;;3568167;40;20396;-72
2021/05/15 12:07:15;;;;;;;2.22;1.20;;;;;;;;;;3568189;40;20739;-71
2021/05/15 12:09:41;;;;;;;2.35;1.27;;;;;;;;;;3568382;40;20467;-70
2021/05/15 12:12:11;;;;;;;1.20;1.00;;;;;;;;;;3568412;40;20384;-70
2021/05/15 12:14:39;;;;;;;2.13;0.95;;;;;;;;;;3568195;40;20412;-68
2021/05/15 12:17:07;;;;;;;1.95;1.00;;;;;;;;;;3569573;40;20384;-70
2021/05/15 12:19:33;;;;;;;3.13;1.10;;;;;;;;;;3569297;40;20773;-69
2021/05/15 12:22:00;;;;;;;3.20;0.90;;;;;;;;;;3568577;40;20382;-70
2021/05/15 12:24:44;;;;;;;2.40;0.88;;;;;;;;;;3567516;40;20439;-70
2021/05/15 12:27:12;;;;;;;1.10;0.77;;;;;;;;;;3570832;40;20448;-68
2021/05/15 12:29:40;;;;;;;1.63;0.80;;;;;;;;;;3571062;40;20418;-70
2021/05/15 12:32:06;;;;;;;2.55;1.13;;;;;;;;;;3577809;40;20410;-70
2021/05/15 12:34:32;;;;;;;2.30;0.70;;;;;;;;;;3569672;40;20383;-68
2021/05/15 12:36:59;;;;;;;1.40;0.90;;;;;;;;;;3570568;40;20421;-68
2021/05/15 12:39:33;;;;;;;1.30;0.60;;;;;;;;;;3570831;40;20475;-68
2021/05/15 12:42:00;;;;;;;2.10;0.85;;;;;;;;;;3568983;40;20397;-70
2021/05/15 12:44:36;;;;;;;1.92;0.75;;;;;;;;;;3571079;40;20378;-69
2021/05/15 12:47:02;;;;;;;1.38;0.82;;;;;;;;;;3570760;40;20434;-68
2021/05/15 12:49:34;;;;;;;1.00;0.60;;;;;;;;;;3570360;40;20387;-69
2021/05/15 12:52:00;;;;;;;1.15;0.60;;;;;;;;;;3571742;40;20376;-68
2021/05/15 12:54:28;;;;;;;1.38;0.50;;;;;;;;;;3569854;40;20388;-68
2021/05/15 12:56:56;;;;;;;1.48;0.50;;;;;;;;;;3570938;40;20439;-68
2021/05/15 12:59:29;;;;;;;1.48;0.60;;;;;;;;;;3570156;40;20768;-68
2021/05/15 13:02:05;;;;;;;1.80;0.60;;;;;;;;;;3572003;40;20394;-68
2021/05/15 13:04:34;;;;;;;1.30;0.60;;;;;;;;;;3570168;40;20374;-68
2021/05/15 13:07:00;;;;;;;1.20;0.60;;;;;;;;;;3569987;40;20441;-67
2021/05/15 13:09:26;;;;;;;1.70;0.60;;;;;;;;;;3571494;40;20423;-69
2021/05/15 13:11:52;;;;;;;1.60;0.60;;;;;;;;;;3569797;40;20362;-71
2021/05/15 13:14:21;;;;;;;1.65;0.60;;;;;;;;;;3570533;40;20404;-70
2021/05/15 13:16:48;;;;;;;1.30;0.50;;;;;;;;;;3570315;40;20681;-71
2021/05/15 13:19:14;;;;;;;1.37;0.53;;;;;;;;;;3571581;40;20391;-71
2021/05/15 13:21:40;;;;;;;1.85;0.60;;;;;;;;;;3570843;40;20432;-70
2021/05/15 13:24:07;;;;;;;2.22;0.45;;;;;;;;;;3570792;40;20388;-71
2021/05/15 13:26:33;;;;;;;0.90;0.50;;;;;;;;;;3577156;40;20412;-70
2021/05/15 13:28:59;;;;;;;1.75;0.70;;;;;;;;;;3570131;40;20392;-71
2021/05/15 13:31:26;;;;;;;2.27;0.70;;;;;;;;;;3569506;40;20696;-71
2021/05/15 13:33:53;;;;;;;1.20;0.50;;;;;;;;;;3570338;40;20394;-71
2021/05/15 13:36:19;;;;;;;1.50;0.70;;;;;;;;;;3569788;40;20878;-71
2021/05/15 13:38:46;;;;;;;1.15;0.60;;;;;;;;;;3577541;40;20771;-71
2021/05/15 13:41:12;;;;;;;1.25;0.60;;;;;;;;;;3570443;40;20767;-71
2021/05/15 13:43:38;;;;;;;1.00;0.50;;;;;;;;;;3570935;40;20782;-71
2021/05/15 13:46:04;;;;;;;1.30;0.60;;;;;;;;;;3570210;40;20785;-72
2021/05/15 13:48:32;;;;;;;1.27;0.60;;;;;;;;;;3570085;40;20470;-70
2021/05/15 13:51:00;;;;;;;1.42;0.50;;;;;;;;;;3570283;40;20789;-70
2021/05/15 13:53:26;;;;;;;1.05;0.40;;;;;;;;;;3570105;40;20387;-71
2021/05/15 13:55:52;;;;;;;1.13;0.50;;;;;;;;;;3569398;40;20407;-71
2021/05/15 13:58:19;;;;;;;0.70;0.50;;;;;;;;;;3568693;40;20407;-71
2021/05/15 14:00:45;;;;;;;1.50;0.45;;;;;;;;;;3568829;40;20814;-71
2021/05/15 14:03:12;;;;;;;1.70;0.57;;;;;;;;;;3579210;40;20418;-71
2021/05/15 14:05:38;;;;;;;2.53;0.60;;;;;;;;;;3565887;40;20421;-71
2021/05/15 14:08:05;;;;;;;0.70;0.40;;;;;;;;;;3587040;40;20409;-71
2021/05/15 14:10:32;;;;;;;1.35;0.63;;;;;;;;;;3579209;40;20382;-70
2021/05/15 14:12:58;;;;;;;2.05;0.75;;;;;;;;;;3577442;40;20757;-71
2021/05/15 14:15:25;;;;;;;1.35;0.85;;;;;;;;;;3578147;40;20419;-70
2021/05/15 14:17:51;;;;;;;1.80;1.10;;;;;;;;;;3581357;40;20406;-71
2021/05/15 14:20:19;;;;;;;2.50;0.90;;;;;;;;;;3576994;40;20420;-71